createdAt,value
2022-08-26T00:02:46.156Z,2.5351170568561874
2022-08-26T00:09:08.000Z,2.254180602006689
2022-08-26T00:15:29.381Z,3.2441471571906355
2022-08-26T00:21:51.230Z,3.1070234113712374
2022-08-26T00:28:13.400Z,2.6387959866220734
2022-08-26T00:35:16.794Z,1.7759197324414715
2022-08-26T00:41:38.683Z,1.9665551839464883
2022-08-26T00:48:23.633Z,2.5785953177257523
2022-08-26T00:54:45.049Z,2.779264214046823
2022-08-26T01:01:06.214Z,1.979933110367893
2022-08-26T01:07:27.638Z,2.5585284280936453
2022-08-26T01:13:52.369Z,2.4749163879598663
2022-08-26T01:25:31.749Z,3.5384615384615383
2022-08-26T01:34:35.006Z,2.722408026755853
2022-08-26T01:47:13.538Z,2.8762541806020065
2022-08-26T01:53:35.871Z,3.25752508361204
2022-08-26T02:02:15.854Z,2.2675585284280935
2022-08-26T02:12:00.174Z,3.8862876254180603
2022-08-26T02:31:47.249Z,3.25752508361204
2022-08-26T02:43:39.618Z,2.7725752508361206
2022-08-26T02:50:01.486Z,3.3244147157190636
2022-08-26T02:56:22.862Z,2.0133779264214047
2022-08-26T03:07:10.930Z,2.4782608695652173
2022-08-26T03:19:06.556Z,3.2876254180602005
2022-08-26T03:25:37.474Z,3.4214046822742477
2022-08-26T03:34:29.055Z,3.5183946488294313
2022-08-26T03:43:10.672Z,2.6387959866220734
2022-08-26T03:53:37.323Z,3.0334448160535117
2022-08-26T04:01:46.978Z,3.1270903010033444
2022-08-26T04:08:09.262Z,3.270903010033445
2022-08-26T04:14:31.327Z,2.4648829431438126
2022-08-26T04:28:55.125Z,2.548494983277592
2022-08-26T04:35:16.721Z,2.190635451505017
2022-08-26T04:47:16.950Z,3.4147157190635453
2022-08-26T04:53:51.922Z,4.036789297658863
2022-08-26T05:00:13.112Z,4.11371237458194
2022-08-26T05:06:37.053Z,2.849498327759197
2022-08-26T05:12:58.237Z,3.94314381270903
2022-08-26T05:24:17.991Z,2.688963210702341
2022-08-26T05:54:57.587Z,3.240802675585284
2022-08-26T06:01:18.794Z,2.9966555183946486
2022-08-26T06:07:41.203Z,3.1270903010033444
2022-08-26T06:14:03.918Z,3.117056856187291
2022-08-26T06:20:27.913Z,3.862876254180602
2022-08-26T06:30:05.735Z,4.046822742474917
2022-08-26T06:36:27.587Z,2.8127090301003346
2022-08-26T06:42:49.617Z,3.1137123745819397
2022-08-26T06:49:11.678Z,4.1438127090301
2022-08-26T06:55:32.606Z,3.1739130434782608
2022-08-26T07:02:22.296Z,4.046822742474917
2022-08-26T07:08:43.642Z,4.234113712374582
2022-08-26T07:15:04.906Z,3.9163879598662206
2022-08-26T07:27:20.316Z,3.8260869565217392
2022-08-26T07:33:46.096Z,4.414715719063545
2022-08-26T07:43:44.620Z,4.976588628762542
2022-08-26T07:50:12.340Z,3.8260869565217392
2022-08-26T08:04:58.510Z,3.8729096989966556
2022-08-26T08:11:22.329Z,3.1872909698996654
2022-08-26T08:21:37.182Z,3.979933110367893
2022-08-26T08:28:00.287Z,2.9063545150501673
2022-08-26T08:34:24.990Z,1.9732441471571907
2022-08-26T08:40:46.698Z,2.5652173913043477
2022-08-26T08:47:08.581Z,2.7123745819397995
2022-08-26T08:55:35.281Z,2.983277591973244
2022-08-26T09:01:57.482Z,2.6588628762541804
2022-08-26T09:08:20.476Z,2.8762541806020065
2022-08-26T09:14:42.145Z,3.765886287625418
2022-08-26T09:21:04.422Z,1.9732441471571907
2022-08-26T09:27:25.850Z,2.4414715719063547
2022-08-26T09:33:47.746Z,2.859531772575251
2022-08-26T09:43:57.026Z,3.531772575250836
2022-08-26T09:50:18.818Z,2.4214046822742477
2022-08-26T09:56:39.945Z,2.060200668896321
2022-08-26T10:05:12.474Z,3.491638795986622
2022-08-26T10:11:33.712Z,2.9765886287625416
2022-08-26T10:17:54.999Z,2.6622073578595318
2022-08-26T10:34:00.042Z,2.297658862876254
2022-08-26T10:40:25.024Z,3.1070234113712374
2022-08-26T10:46:57.640Z,3.3846153846153846
2022-08-26T10:53:25.377Z,3.277591973244147
2022-08-26T10:59:51.745Z,2.3846153846153846
2022-08-26T11:06:17.676Z,3.31438127090301
2022-08-26T11:12:49.386Z,2.448160535117057
2022-08-26T11:20:30.305Z,3.100334448160535
2022-08-26T11:29:26.507Z,3.4581939799331103
2022-08-26T11:36:12.323Z,2.448160535117057
2022-08-26T11:42:48.448Z,2.5250836120401337
2022-08-26T11:52:41.095Z,2.117056856187291
2022-08-26T11:59:05.767Z,1.8294314381270902
2022-08-26T12:08:38.062Z,3.290969899665552
2022-08-26T12:15:02.234Z,2.6387959866220734
2022-08-26T12:23:39.193Z,2.9966555183946486
2022-08-26T12:35:56.668Z,2.8762541806020065
2022-08-26T12:42:20.326Z,3.0
2022-08-26T12:53:10.954Z,3.301003344481605
2022-08-26T12:59:34.481Z,3.8327759197324416
2022-08-26T13:05:57.335Z,3.6387959866220734
2022-08-26T13:19:10.335Z,2.9364548494983276
2022-08-26T13:25:33.094Z,2.488294314381271
2022-08-26T13:31:57.131Z,1.7023411371237458
2022-08-26T13:38:33.444Z,1.8729096989966556
2022-08-26T13:45:34.301Z,3.1438127090301005
2022-08-26T13:53:23.814Z,3.5050167224080266
2022-08-26T14:00:54.565Z,3.190635451505017
2022-08-26T14:07:21.861Z,2.9966555183946486
2022-08-26T14:13:45.625Z,1.3444816053511706
2022-08-26T14:20:10.574Z,2.4448160535117056
2022-08-26T14:26:34.918Z,1.7491638795986622
2022-08-26T14:32:59.944Z,1.6722408026755853
2022-08-26T14:39:25.619Z,1.8461538461538463
2022-08-26T14:45:53.081Z,1.7190635451505016
2022-08-26T14:52:25.328Z,2.1739130434782608
2022-08-26T14:58:49.615Z,3.9364548494983276
2022-08-26T15:08:38.299Z,5.632107023411371
2022-08-26T15:26:52.719Z,4.719063545150502
2022-08-26T15:33:15.605Z,4.933110367892977
2022-08-26T15:39:39.708Z,3.979933110367893
2022-08-26T15:46:02.268Z,4.1806020066889635
2022-08-26T15:52:25.302Z,4.625418060200669
2022-08-26T15:58:48.649Z,3.919732441471572
2022-08-26T16:05:12.569Z,4.956521739130435
2022-08-26T16:11:37.485Z,4.8193979933110365
2022-08-26T16:18:01.817Z,4.8996655518394645
2022-08-26T16:30:03.296Z,4.404682274247492
2022-08-26T16:36:26.533Z,2.7959866220735785
2022-08-26T16:42:50.815Z,3.5150501672240804
2022-08-26T16:49:15.506Z,4.150501672240803
2022-08-26T16:55:36.694Z,2.451505016722408
2022-08-26T17:03:50.789Z,3.0434782608695654
2022-08-26T17:10:12.193Z,3.702341137123746
2022-08-26T17:16:33.518Z,1.8896321070234114
2022-08-26T17:27:16.200Z,1.68561872909699
2022-08-26T17:33:40.780Z,2.1638795986622075
2022-08-26T17:42:14.957Z,1.7290969899665551
2022-08-26T17:48:37.090Z,0.9431438127090301
2022-08-26T17:58:23.581Z,1.5585284280936456
2022-08-26T18:08:35.581Z,0.9832775919732442
2022-08-26T18:14:57.756Z,1.3612040133779264
2022-08-26T18:27:02.776Z,1.3110367892976589
2022-08-26T18:40:43.297Z,1.351170568561873
2022-08-26T18:48:15.820Z,1.2107023411371238
2022-08-26T18:54:39.723Z,1.0100334448160535
2022-08-26T19:01:03.824Z,0.8695652173913043
2022-08-26T19:07:26.981Z,1.879598662207358
2022-08-26T19:15:31.892Z,1.274247491638796
2022-08-26T19:21:56.570Z,1.9899665551839465
2022-08-26T19:28:30.203Z,0.8896321070234113
2022-08-26T19:34:53.381Z,2.2842809364548495
2022-08-26T19:41:15.177Z,1.2642140468227425
2022-08-26T19:47:38.238Z,1.645484949832776
2022-08-26T19:54:00.651Z,1.434782608695652
2022-08-26T20:00:23.169Z,1.4782608695652173
2022-08-26T20:06:51.096Z,1.9096989966555185
2022-08-26T20:13:22.620Z,1.8294314381270902
2022-08-26T20:19:47.143Z,1.862876254180602
2022-08-26T20:26:12.593Z,1.3444816053511706
2022-08-26T20:32:35.675Z,1.3678929765886287
2022-08-26T20:42:37.322Z,1.5953177257525084
2022-08-26T20:51:01.936Z,2.117056856187291
2022-08-26T20:57:24.343Z,1.6120401337792643
2022-08-26T21:03:45.480Z,1.6588628762541806
2022-08-26T21:10:06.850Z,1.8026755852842808
2022-08-26T21:16:28.220Z,2.217391304347826
2022-08-26T21:22:50.172Z,1.2508361204013378
2022-08-26T21:29:10.761Z,2.240802675585284
2022-08-26T21:35:31.747Z,1.6923076923076923
2022-08-26T21:41:52.264Z,1.7224080267558528
2022-08-26T21:51:47.292Z,1.2775919732441472
2022-08-26T21:58:07.735Z,1.7290969899665551
2022-08-26T22:04:28.400Z,2.0468227424749164
2022-08-26T22:10:49.712Z,2.137123745819398
2022-08-26T22:17:10.874Z,1.6153846153846154
2022-08-26T22:23:31.838Z,1.6688963210702341
2022-08-26T22:35:59.587Z,2.491638795986622
2022-08-26T22:42:21.214Z,2.6220735785953178
2022-08-26T22:48:42.453Z,1.2240802675585285
2022-08-26T22:55:03.456Z,1.5919732441471572
2022-08-26T23:01:24.234Z,1.7090301003344481
2022-08-26T23:07:45.674Z,0.8963210702341137
2022-08-26T23:14:06.934Z,1.4749163879598661
2022-08-26T23:30:04.683Z,1.414715719063545
2022-08-26T23:36:26.801Z,1.1438127090301002
2022-08-26T23:42:47.953Z,1.1270903010033444
2022-08-26T23:49:27.734Z,0.8093645484949833
2022-08-26T23:55:48.812Z,1.588628762541806
